Bureau, Illinois
Current Conditions -  °F | °C
As of 7:15 AM on Thursday 30 Oct 2014 (Local Time) from KVYS Reporting Station
Clear Clear  
Wind Chill:   Ceiling: Unl
Heat Index:   Visibility: 10mi
Dew Point:   Wind: 3mph
Humidity: 92%   Direction: 170°S
Pressure: 30.14"   Gusts: NA
Location:  41.29°N, 89.37°W
Report Text: KVYS 301215Z AUTO 17003KT 10SM CLR 01/00 A3014 RMK AO2 T00130001
Loading
Personal Weather Stations






























Interactive Weather Map
Tropical Storm Tracking
New forecast layout! Learn more

10-Day Weather Forecast

Advertisements
Track Severe Weather on mobile